Main page


Airports :

Bauru, São Paulo, Brazil

Bauru Airport

latitude: 22-19S, longitude: 049-04W, elevation: 590 m

Current weather observation

The report was made 2 hours and 0 minutes ago, at 12:00 UTC
Wind 8 kt from the Northeast
Temperature 26°C
Humidity 74%
Pressure 1017 hPa
Visibility 10 km or more
no clouds below 1500 m and no cumulonimbus

METAR: SBBU 241200Z 05008KT CAVOK 26/21 Q1017

Time: 12:00 (14:00 UTC)


The report was made 3 hours and 30 minutes ago, at 10:30 UTC
Forecast valid from 24 at 12 UTC to 24 at 24 UTC
Wind 4 kt from the East/Southeast
Visibility 10 km or more
Few clouds at a height of 4000 ft
Probability 30% :
from 24 at 16 UTC to 24 at 20 UTC
Visibility: 8000 m
Scattered clouds at a height of 4000 ft
Few clouds at a height of 4000 ft, Towering cumulus.
rain showers

TAF: SBBU 241030Z 2412/2424 12004KT 9999 FEW040 TN25/2412Z TX31/2417Z PROB30 TEMPO 2416/2420 8000 SHRA SCT040 FEW040TCU RMK PDN

Weather observations and forecasts of more than 4000 airports (METAR and TAF reports).

The available stations are represented by yellow and red dots on the map.

Hover mouse over dot to see the name of the station.

Then click to see weather observations and forecasts.

To change the map : click on the green buttons with a black cross to zoom in, on the green button with a dash to zoom out, or on the green arrows for adjacent maps.